Time;durP1;ratioP1;P1;durP2;ratioP2;P2;SDS_P1;SDS_P2;PMS_P1;PMS_P2;Temp;Humidity;BMP_temperature;BMP_pressure;BME280_temperature;BME280_humidity;BME280_pressure;Samples;Min_cycle;Max_cycle;Signal;HPM_P1;HPM_P2
2024/01/15 00:02:06;;;;;;;36.27;17.93;;;;;;;0.51;100.00;100307.63;5019518;28;20126;-66
2024/01/15 00:04:36;;;;;;;37.77;15.90;;;;;;;0.51;100.00;100305.00;5039958;28;20025;-66
2024/01/15 00:07:02;;;;;;;39.10;17.30;;;;;;;0.50;100.00;100303.31;5039023;28;20212;-66
2024/01/15 00:09:27;;;;;;;25.67;13.00;;;;;;;0.52;100.00;100298.03;5033905;28;20116;-66
2024/01/15 00:11:53;;;;;;;29.83;15.67;;;;;;;0.50;100.00;100297.19;5046802;28;20116;-66
2024/01/15 00:14:20;;;;;;;11.83;9.73;;;;;;;0.55;100.00;100288.31;5050585;28;20099;-66
2024/01/15 00:16:45;;;;;;;15.63;10.73;;;;;;;0.52;100.00;100295.41;5051422;28;20025;-66
2024/01/15 00:19:11;;;;;;;33.83;15.93;;;;;;;0.50;100.00;100290.22;5052740;28;20044;-66
2024/01/15 00:21:36;;;;;;;31.57;15.27;;;;;;;0.41;100.00;100272.19;5051613;28;20052;-66
2024/01/15 00:24:02;;;;;;;28.27;12.20;;;;;;;0.52;100.00;100285.78;5050362;28;20049;-66
2024/01/15 00:26:29;;;;;;;31.17;14.70;;;;;;;0.48;100.00;100284.19;5051126;28;20032;-66
2024/01/15 00:28:55;;;;;;;28.60;13.93;;;;;;;0.45;100.00;100282.50;5046613;28;20025;-66
2024/01/15 00:31:20;;;;;;;23.77;12.20;;;;;;;0.37;100.00;100260.97;5035557;28;20021;-66
2024/01/15 00:33:46;;;;;;;27.63;11.17;;;;;;;0.45;100.00;100279.91;5036447;28;20045;-66
2024/01/15 00:36:11;;;;;;;17.53;10.60;;;;;;;0.44;100.00;100272.09;5042315;28;20028;-66
2024/01/15 00:38:37;;;;;;;22.77;10.57;;;;;;;0.45;100.00;100277.28;5049274;28;20083;-66
2024/01/15 00:41:03;;;;;;;19.73;12.07;;;;;;;0.44;100.00;100266.84;5034489;28;20030;-66
2024/01/15 00:43:28;;;;;;;20.83;10.90;;;;;;;0.42;100.00;100256.44;5047588;28;20028;-66
2024/01/15 00:45:54;;;;;;;15.73;9.13;;;;;;;0.39;100.00;100240.84;5051232;28;20553;-66
2024/01/15 00:48:19;;;;;;;12.80;8.67;;;;;;;0.46;100.00;100251.97;5048777;28;20029;-66
2024/01/15 00:50:45;;;;;;;12.17;7.60;;;;;;;0.45;100.00;100250.28;5051559;28;20388;-66
2024/01/15 00:53:12;;;;;;;12.40;6.63;;;;;;;0.44;100.00;100253.78;5040692;28;20026;-66
2024/01/15 00:55:38;;;;;;;6.40;5.37;;;;;;;0.40;100.00;100234.72;5049666;28;20021;-66
2024/01/15 00:58:03;;;;;;;8.00;5.23;;;;;;;0.39;100.00;100235.63;5040011;28;20028;-66
2024/01/15 01:00:34;;;;;;;6.93;5.17;;;;;;;0.49;100.00;100241.41;5038277;28;20036;-66
2024/01/15 01:03:00;;;;;;;6.23;5.07;;;;;;;0.49;100.00;100249.25;5037550;28;20110;-66
2024/01/15 01:05:25;;;;;;;3.63;3.43;;;;;;;0.53;100.00;100237.81;5049249;28;20049;-66
2024/01/15 01:07:50;;;;;;;6.73;4.93;;;;;;;0.51;100.00;100244.00;5033751;28;20135;-66
2024/01/15 01:10:18;;;;;;;5.87;4.20;;;;;;;0.53;100.00;100232.59;5044573;28;20037;-66
2024/01/15 01:12:43;;;;;;;6.73;3.83;;;;;;;0.54;100.00;100230.81;5033649;28;20112;-66
2024/01/15 01:15:09;;;;;;;4.37;4.00;;;;;;;0.54;100.00;100233.44;5046503;28;20115;-66
2024/01/15 01:17:37;;;;;;;8.50;3.93;;;;;;;0.60;100.00;100239.31;5040948;28;20036;-66
2024/01/15 01:20:06;;;;;;;4.00;3.57;;;;;;;0.55;100.00;100233.38;5047984;28;20032;-66
2024/01/15 01:22:31;;;;;;;4.17;3.87;;;;;;;0.59;100.00;100216.69;5044430;28;20028;-66
2024/01/15 01:24:56;;;;;;;4.30;4.00;;;;;;;0.60;100.00;100213.16;5043178;28;20041;-66
2024/01/15 01:27:22;;;;;;;4.33;3.93;;;;;;;0.52;100.00;100209.06;5045794;28;20044;-66
2024/01/15 01:29:47;;;;;;;5.53;4.10;;;;;;;0.56;100.00;100214.16;5036236;28;20030;-66
2024/01/15 01:32:15;;;;;;;5.20;4.23;;;;;;;0.57;100.00;100231.56;5035171;28;20503;-66
2024/01/15 01:34:42;;;;;;;9.63;4.23;;;;;;;0.57;100.00;100233.34;5070032;28;20032;-66
2024/01/15 01:37:08;;;;;;;4.50;4.17;;;;;;;0.61;100.00;100233.16;5050898;28;20399;-66
2024/01/15 01:39:33;;;;;;;5.77;3.80;;;;;;;0.63;100.00;100235.75;5045198;28;20029;-66
2024/01/15 01:41:58;;;;;;;5.20;3.93;;;;;;;0.45;100.00;100211.88;5031526;28;20075;-66
2024/01/15 01:44:24;;;;;;;3.80;3.57;;;;;;;0.62;100.00;100227.06;5038175;28;20048;-66
2024/01/15 01:46:52;;;;;;;4.40;4.03;;;;;;;0.66;100.00;100239.13;5044895;28;20419;-66
2024/01/15 01:49:18;;;;;;;4.23;3.83;;;;;;;0.71;100.00;100235.47;5032872;28;20759;-65
2024/01/15 01:51:44;;;;;;;5.27;4.73;;;;;;;0.64;100.00;100229.59;5034283;28;20083;-66
2024/01/15 01:54:12;;;;;;;4.03;3.63;;;;;;;0.53;100.00;100213.38;5050687;28;20036;-66
2024/01/15 01:56:38;;;;;;;4.60;4.20;;;;;;;0.58;100.00;100240.28;5041823;28;20396;-66
2024/01/15 01:59:04;;;;;;;6.27;4.03;;;;;;;0.57;100.00;100238.56;5023387;28;20029;-66
2024/01/15 02:01:31;;;;;;;4.23;3.83;;;;;;;0.48;100.00;100212.69;5046303;28;20033;-66
2024/01/15 02:03:56;;;;;;;4.07;3.87;;;;;;;0.48;100.00;100215.31;5035987;28;20491;-66
2024/01/15 02:06:23;;;;;;;4.10;3.80;;;;;;;0.55;100.00;100232.50;5031527;28;20063;-66
2024/01/15 02:08:48;;;;;;;4.97;4.10;;;;;;;0.48;100.00;100229.25;5048079;28;20085;-66
2024/01/15 02:11:15;;;;;;;8.17;3.97;;;;;;;0.48;100.00;100228.41;5038765;28;20060;-65
2024/01/15 02:13:40;;;;;;;8.30;4.00;;;;;;;0.40;100.00;100219.00;5039409;28;20457;-65
2024/01/15 02:16:05;;;;;;;4.10;3.77;;;;;;;0.37;100.00;100223.50;5048178;28;20048;-65
2024/01/15 02:18:40;;;;;;;4.07;3.87;;;;;;;0.37;100.00;100220.88;5041322;28;20036;-66
2024/01/15 02:21:06;;;;;;;6.30;4.20;;;;;;;0.35;100.00;100223.53;5038275;28;20480;-66
2024/01/15 02:23:33;;;;;;;7.33;3.80;;;;;;;0.36;100.00;100227.03;5043916;28;20056;-66
2024/01/15 02:25:59;;;;;;;4.37;3.97;;;;;;;0.47;100.00;100224.03;5048372;28;20377;-66
2024/01/15 02:28:24;;;;;;;6.80;4.33;;;;;;;0.43;100.00;100228.53;5042608;28;20036;-66
2024/01/15 02:30:49;;;;;;;3.80;3.50;;;;;;;0.32;100.00;100215.78;5017393;28;20025;-66
2024/01/15 02:33:15;;;;;;;5.33;4.10;;;;;;;0.38;100.00;100226.06;5032010;28;20036;-66
2024/01/15 02:35:41;;;;;;;4.53;4.23;;;;;;;0.37;100.00;100208.66;5030750;28;20033;-66
2024/01/15 02:38:07;;;;;;;9.00;4.50;;;;;;;0.34;100.00;100226.19;5022849;28;20033;-66
2024/01/15 02:40:32;;;;;;;6.87;3.73;;;;;;;0.23;100.00;100203.00;5039092;28;20029;-65
2024/01/15 02:42:58;;;;;;;6.47;4.07;;;;;;;0.31;100.00;100221.91;5038258;28;20365;-66
2024/01/15 02:45:23;;;;;;;4.97;4.47;;;;;;;0.28;100.00;100218.56;5030289;28;20075;-66
2024/01/15 02:47:49;;;;;;;4.23;3.83;;;;;;;0.28;100.00;100216.78;5039089;28;20083;-66
2024/01/15 02:50:14;;;;;;;4.00;3.70;;;;;;;0.17;100.00;100211.88;5040645;28;20112;-66
2024/01/15 02:52:41;;;;;;;6.70;4.10;;;;;;;0.26;100.00;100217.72;5045179;28;20052;-66
2024/01/15 02:55:07;;;;;;;9.03;3.90;;;;;;;0.24;100.00;100220.41;5047704;28;20040;-66
2024/01/15 02:57:32;;;;;;;6.43;4.40;;;;;;;0.25;100.00;100227.34;5069107;28;20029;-65
2024/01/15 02:59:58;;;;;;;9.83;5.20;;;;;;;0.24;100.00;100220.41;5041346;28;20037;-66
2024/01/15 03:02:23;;;;;;;4.17;3.87;;;;;;;0.17;100.00;100217.09;5043554;28;20029;-65
2024/01/15 03:04:49;;;;;;;3.83;3.63;;;;;;;0.22;100.00;100230.91;5071992;28;20060;-65
2024/01/15 03:07:14;;;;;;;5.67;4.67;;;;;;;0.25;100.00;100231.72;5044360;28;20022;-66
2024/01/15 03:09:42;;;;;;;7.03;4.00;;;;;;;0.29;100.00;100236.78;5040545;28;21592;-65
2024/01/15 03:12:07;;;;;;;5.13;4.63;;;;;;;0.32;100.00;100228.84;5035389;28;20036;-65
2024/01/15 03:14:32;;;;;;;6.57;4.00;;;;;;;0.33;100.00;100233.19;5032633;28;20021;-66
2024/01/15 03:16:58;;;;;;;4.30;4.00;;;;;;;0.34;100.00;100228.81;5035526;28;20443;-66
2024/01/15 03:19:23;;;;;;;4.33;3.67;;;;;;;0.34;100.00;100234.91;5030577;28;20032;-65
2024/01/15 03:21:49;;;;;;;7.87;3.10;;;;;;;0.42;100.00;100237.28;5039368;28;20021;-66
2024/01/15 03:24:14;;;;;;;8.30;5.47;;;;;;;0.36;100.00;100233.09;5031430;28;20491;-66
2024/01/15 03:26:40;;;;;;;6.20;4.10;;;;;;;0.29;100.00;100228.09;5033316;28;20025;-66
2024/01/15 03:29:05;;;;;;;13.43;4.50;;;;;;;0.32;100.00;100226.22;5031996;28;20025;-66
2024/01/15 03:31:31;;;;;;;9.33;4.17;;;;;;;0.26;100.00;100217.72;5046861;28;20024;-66
2024/01/15 03:33:56;;;;;;;5.87;3.90;;;;;;;0.20;100.00;100205.69;5036249;28;20018;-66
2024/01/15 03:36:22;;;;;;;3.77;3.47;;;;;;;0.28;100.00;100223.78;5033938;28;20524;-66
2024/01/15 03:38:47;;;;;;;7.90;3.90;;;;;;;0.20;100.00;100211.78;5043526;28;20036;-66
2024/01/15 03:41:13;;;;;;;4.03;3.80;;;;;;;0.26;100.00;100223.81;5033865;28;20019;-66
2024/01/15 03:43:39;;;;;;;6.30;4.13;;;;;;;0.26;100.00;100223.81;5034022;28;20021;-66
2024/01/15 03:46:05;;;;;;;3.90;3.60;;;;;;;0.32;100.00;100214.94;5035140;28;20018;-66
2024/01/15 03:48:30;;;;;;;4.30;3.90;;;;;;;0.22;100.00;100193.44;5039523;28;20051;-66
2024/01/15 03:50:58;;;;;;;4.23;3.93;;;;;;;0.27;100.00;100196.78;5051146;28;20484;-66
2024/01/15 03:53:26;;;;;;;8.03;4.40;;;;;;;0.38;100.00;100207.75;5046786;28;20021;-66
2024/01/15 03:55:52;;;;;;;7.47;3.83;;;;;;;0.39;100.00;100208.63;5034724;28;20424;-66
2024/01/15 03:58:18;;;;;;;7.57;4.20;;;;;;;0.38;100.00;100209.50;5035435;28;20029;-66
2024/01/15 04:00:44;;;;;;;10.67;4.93;;;;;;;0.36;100.00;100190.41;5051842;28;20021;-65
2024/01/15 04:03:09;;;;;;;4.37;3.83;;;;;;;0.45;100.00;100197.97;5038804;28;20407;-65
2024/01/15 04:05:35;;;;;;;7.43;3.73;;;;;;;0.38;100.00;100170.28;5045856;28;20024;-66
2024/01/15 04:08:00;;;;;;;3.97;3.67;;;;;;;0.49;100.00;100185.63;5045536;28;20051;-66
2024/01/15 04:10:26;;;;;;;5.57;4.67;;;;;;;0.45;100.00;100179.66;5052248;28;20032;-66
2024/01/15 04:12:51;;;;;;;4.70;4.30;;;;;;;0.43;100.00;100187.53;5047006;28;20021;-66
2024/01/15 04:15:17;;;;;;;4.87;4.37;;;;;;;0.42;100.00;100180.59;5035710;28;20024;-66
2024/01/15 04:17:42;;;;;;;5.30;4.13;;;;;;;0.48;100.00;100192.63;5043721;28;20017;-66
2024/01/15 04:20:08;;;;;;;3.97;3.60;;;;;;;0.47;100.00;100180.44;5051982;28;20090;-66
2024/01/15 04:22:35;;;;;;;5.40;3.93;;;;;;;0.47;100.00;100176.97;5043959;28;20030;-66
2024/01/15 04:25:01;;;;;;;4.20;3.80;;;;;;;0.49;100.00;100180.41;5039231;28;20494;-66
2024/01/15 04:27:26;;;;;;;9.20;4.03;;;;;;;0.51;100.00;100175.97;5038037;28;20113;-66
2024/01/15 04:29:54;;;;;;;10.50;5.03;;;;;;;0.50;100.00;100169.91;5041815;28;20033;-66
2024/01/15 04:32:19;;;;;;;6.37;4.03;;;;;;;0.43;100.00;100166.59;5035476;28;20041;-66
2024/01/15 04:34:45;;;;;;;4.73;4.37;;;;;;;0.41;100.00;100168.44;5035839;28;20477;-66
2024/01/15 04:37:10;;;;;;;4.63;3.80;;;;;;;0.42;100.00;100164.06;5033042;28;20056;-66
2024/01/15 04:39:36;;;;;;;5.63;4.03;;;;;;;0.50;100.00;100175.13;5033979;28;20025;-66
2024/01/15 04:42:01;;;;;;;10.10;4.30;;;;;;;0.51;100.00;100176.81;5080678;28;20496;-66
2024/01/15 04:44:27;;;;;;;4.47;3.60;;;;;;;0.53;100.00;100185.50;5050268;28;20036;-65
2024/01/15 04:46:52;;;;;;;5.63;3.90;;;;;;;0.53;100.00;100180.25;5033590;28;20025;-65
2024/01/15 04:49:20;;;;;;;4.80;3.67;;;;;;;0.49;100.00;100176.00;5032896;28;20137;-66
2024/01/15 04:51:45;;;;;;;8.80;4.20;;;;;;;0.45;100.00;100169.19;5034446;28;20025;-66
2024/01/15 04:54:11;;;;;;;5.50;4.53;;;;;;;0.40;100.00;100161.47;5031675;28;20032;-66
2024/01/15 04:56:37;;;;;;;4.30;3.87;;;;;;;0.41;100.00;100164.94;5044081;28;20033;-66
2024/01/15 04:59:02;;;;;;;3.90;3.70;;;;;;;0.39;100.00;100165.00;5047562;28;20029;-66
2024/01/15 05:01:32;;;;;;;4.17;3.77;;;;;;;0.41;100.00;100173.66;5047887;28;20043;-66
2024/01/15 05:03:58;;;;;;;4.07;3.55;;;;;;;0.40;100.00;100169.31;5032599;28;20052;-66
2024/01/15 05:06:23;;;;;;;3.60;3.50;;;;;;;0.33;100.00;100165.19;5040055;28;20163;-66
2024/01/15 05:08:49;;;;;;;3.03;2.93;;;;;;;0.43;100.00;100171.84;5050704;28;20087;-66
2024/01/15 05:11:14;;;;;;;2.90;2.80;;;;;;;0.36;100.00;100164.25;5049408;28;20098;-68
2024/01/15 05:13:40;;;;;;;4.47;3.63;;;;;;;0.39;100.00;100158.91;5078059;28;20112;-65
2024/01/15 05:16:06;;;;;;;3.50;3.30;;;;;;;0.34;100.00;100147.75;5040677;28;20021;-65
2024/01/15 05:18:31;;;;;;;3.70;3.50;;;;;;;0.29;100.00;100141.78;5045380;28;20381;-66
2024/01/15 05:20:56;;;;;;;3.90;3.60;;;;;;;0.38;100.00;100154.56;5032713;28;20060;-65
2024/01/15 05:23:22;;;;;;;3.30;3.20;;;;;;;0.37;100.00;100155.50;5000219;28;1116283;-65
2024/01/15 05:25:47;;;;;;;4.03;3.83;;;;;;;0.37;100.00;100143.25;5043809;28;20035;-65
2024/01/15 05:28:13;;;;;;;9.43;3.53;;;;;;;0.29;100.00;100136.56;5077702;28;20029;-66
2024/01/15 05:30:39;;;;;;;4.90;3.73;;;;;;;0.30;100.00;100140.91;5034957;28;20357;-65
2024/01/15 05:33:04;;;;;;;3.80;3.60;;;;;;;0.27;100.00;100141.00;5051235;28;20031;-65
2024/01/15 05:35:30;;;;;;;7.63;3.70;;;;;;;0.39;100.00;100138.00;5033804;28;20026;-65
2024/01/15 05:37:55;;;;;;;4.07;3.73;;;;;;;0.37;100.00;100137.19;5043599;28;20550;-65
2024/01/15 05:40:25;;;;;;;6.97;3.43;;;;;;;0.29;100.00;100133.94;5033343;28;20124;-66
2024/01/15 05:42:51;;;;;;;5.20;4.82;;;;;;;0.34;100.00;100132.06;5035967;28;20508;-66
2024/01/15 05:45:18;;;;;;;6.23;3.93;;;;;;;0.33;100.00;100131.19;5039532;28;20036;-66
2024/01/15 05:47:44;;;;;;;4.00;3.70;;;;;;;0.33;100.00;100135.59;5033934;28;20029;-66
2024/01/15 05:50:13;;;;;;;9.90;4.23;;;;;;;0.29;100.00;100137.41;5034588;28;20067;-65
2024/01/15 05:52:38;;;;;;;6.40;4.50;;;;;;;0.36;100.00;100136.34;5044172;28;20091;-65
2024/01/15 05:55:07;;;;;;;4.47;3.70;;;;;;;0.33;100.00;100133.81;5050132;28;20422;-65
2024/01/15 05:57:33;;;;;;;2.70;2.60;;;;;;;0.38;100.00;100128.41;5081396;28;20025;-65
2024/01/15 05:59:58;;;;;;;5.30;3.63;;;;;;;0.39;100.00;100122.31;5046945;28;20452;-66
2024/01/15 06:02:26;;;;;;;5.77;3.83;;;;;;;0.32;100.00;100129.47;5046561;28;20486;-66
2024/01/15 06:04:51;;;;;;;9.80;4.17;;;;;;;0.31;100.00;100117.31;5065203;28;20112;-65
2024/01/15 06:07:19;;;;;;;5.97;4.57;;;;;;;0.26;100.00;100110.53;5047511;28;20023;-65
2024/01/15 06:09:44;;;;;;;5.57;4.10;;;;;;;0.29;100.00;100110.41;5046018;28;20032;-66
2024/01/15 06:12:10;;;;;;;4.60;4.20;;;;;;;0.36;100.00;100109.34;5042529;28;20491;-66
2024/01/15 06:14:35;;;;;;;7.13;4.17;;;;;;;0.33;100.00;100120.75;5043768;28;20029;-65
2024/01/15 06:17:01;;;;;;;9.60;3.93;;;;;;;0.38;100.00;100113.59;5076408;28;20033;-66
2024/01/15 06:19:26;;;;;;;6.47;4.77;;;;;;;0.32;100.00;100113.78;5046219;28;20059;-66
2024/01/15 06:21:51;;;;;;;6.33;3.97;;;;;;;0.31;100.00;100108.63;5046546;28;20031;-66
2024/01/15 06:24:20;;;;;;;4.07;3.73;;;;;;;0.34;100.00;100114.59;5038073;28;20053;-65
2024/01/15 06:26:46;;;;;;;4.60;4.10;;;;;;;0.44;100.00;100117.75;5033938;28;20370;-65
2024/01/15 06:29:12;;;;;;;4.40;4.00;;;;;;;0.40;100.00;100113.53;5037298;28;20059;-65
2024/01/15 06:31:37;;;;;;;4.63;4.30;;;;;;;0.38;100.00;100123.19;5038482;28;20033;-65
2024/01/15 06:34:02;;;;;;;4.50;4.20;;;;;;;0.40;100.00;100109.16;5036529;28;20488;-65
2024/01/15 06:36:28;;;;;;;4.07;3.70;;;;;;;0.34;100.00;100098.06;5082291;28;20032;-66
2024/01/15 06:38:53;;;;;;;4.07;3.87;;;;;;;0.34;100.00;100116.38;5047192;28;20115;-65
2024/01/15 06:41:19;;;;;;;4.23;3.70;;;;;;;0.36;100.00;100115.41;5041753;28;20108;-65
2024/01/15 06:43:44;;;;;;;4.20;3.90;;;;;;;0.30;100.00;100109.53;5066513;28;20056;-65
2024/01/15 06:46:09;;;;;;;4.40;4.20;;;;;;;0.31;100.00;100124.31;5045045;28;20100;-66
2024/01/15 06:48:35;;;;;;;4.90;4.40;;;;;;;0.29;100.00;100121.72;5029989;28;20024;-66
2024/01/15 06:51:00;;;;;;;4.30;4.03;;;;;;;0.28;100.00;100119.19;5040798;28;20176;-66
2024/01/15 06:53:26;;;;;;;4.10;3.80;;;;;;;0.24;100.00;100113.19;5079109;28;20116;-65
2024/01/15 06:55:51;;;;;;;7.03;3.70;;;;;;;0.15;100.00;100113.50;5069921;28;20099;-66
2024/01/15 06:58:16;;;;;;;4.00;3.80;;;;;;;0.21;100.00;100111.53;5049397;28;20104;-66
2024/01/15 07:00:42;;;;;;;5.43;4.77;;;;;;;0.23;100.00;100114.09;5036854;28;20026;-65
2024/01/15 07:03:07;;;;;;;6.97;3.80;;;;;;;0.15;100.00;100106.50;5034750;28;20033;-65
2024/01/15 07:05:32;;;;;;;4.67;4.30;;;;;;;0.12;100.00;100108.34;5040872;28;20020;-66
2024/01/15 07:07:58;;;;;;;4.50;4.20;;;;;;;0.09;100.00;100100.59;5032718;28;20033;-66
2024/01/15 07:10:23;;;;;;;3.90;3.70;;;;;;;0.12;100.00;100117.06;5033094;28;20030;-66
2024/01/15 07:12:49;;;;;;;4.40;4.10;;;;;;;0.14;100.00;100112.63;5032501;28;20029;-66
2024/01/15 07:15:15;;;;;;;4.77;4.13;;;;;;;0.12;100.00;100116.19;5045801;28;20025;-65
2024/01/15 07:17:43;;;;;;;4.40;4.10;;;;;;;0.16;100.00;100126.50;5062288;28;20049;-65
2024/01/15 07:20:09;;;;;;;4.53;4.17;;;;;;;0.16;100.00;100116.06;5036332;28;20025;-66
2024/01/15 07:22:38;;;;;;;4.40;4.20;;;;;;;0.08;100.00;100104.97;5034862;28;20037;-65
2024/01/15 07:25:04;;;;;;;4.93;4.53;;;;;;;0.09;100.00;100106.72;5032461;28;20053;-65
2024/01/15 07:27:31;;;;;;;4.60;4.30;;;;;;;0.14;100.00;100122.22;5035632;28;20031;-65
2024/01/15 07:29:57;;;;;;;4.40;4.20;;;;;;;0.04;100.00;100106.00;5047198;28;20025;-65
2024/01/15 07:32:22;;;;;;;4.40;4.17;;;;;;;0.17;100.00;100120.38;5043437;28;20499;-65
2024/01/15 07:34:48;;;;;;;4.37;4.17;;;;;;;0.16;100.00;100116.06;5033525;28;20060;-65
2024/01/15 07:37:13;;;;;;;4.57;4.20;;;;;;;0.15;100.00;100114.34;5029695;28;20072;-65
2024/01/15 07:39:39;;;;;;;4.80;4.50;;;;;;;0.15;100.00;100122.19;5044874;28;20032;-65
2024/01/15 07:42:04;;;;;;;6.53;4.83;;;;;;;0.15;100.00;100116.97;5079991;28;20025;-65
2024/01/15 07:44:30;;;;;;;6.23;5.73;;;;;;;0.20;100.00;100108.97;5036293;28;20029;-65
2024/01/15 07:46:55;;;;;;;6.13;5.63;;;;;;;0.11;100.00;100114.50;5048060;28;20025;-64
2024/01/15 07:49:20;;;;;;;6.40;5.90;;;;;;;0.14;100.00;100120.47;5036494;28;20035;-64
2024/01/15 07:51:46;;;;;;;6.73;6.13;;;;;;;0.05;100.00;100112.06;5029623;28;20045;-64
2024/01/15 07:54:14;;;;;;;6.60;6.00;;;;;;;0.17;100.00;100129.97;5031217;28;20034;-64
2024/01/15 07:57:00;;;;;;;6.30;5.80;;;;;;;0.18;100.00;100131.72;5045876;28;20427;-64
2024/01/15 07:59:26;;;;;;;7.27;6.57;;;;;;;0.21;100.00;100140.31;5046076;28;20455;-64
2024/01/15 08:01:52;;;;;;;7.00;6.30;;;;;;;0.21;100.00;100137.69;5031752;28;20026;-64
2024/01/15 08:04:18;;;;;;;6.20;5.53;;;;;;;0.20;100.00;100132.50;5045461;28;20381;-63
2024/01/15 08:06:44;;;;;;;6.93;6.20;;;;;;;0.17;100.00;100135.19;5040454;28;20031;-64
2024/01/15 08:09:10;;;;;;;7.17;6.47;;;;;;;0.21;100.00;100140.31;5049205;28;20052;-64
2024/01/15 08:11:36;;;;;;;6.50;5.90;;;;;;;0.28;100.00;100143.56;5040204;28;20100;-64
2024/01/15 08:14:04;;;;;;;7.03;5.50;;;;;;;0.29;100.00;100142.66;5043977;28;20036;-64
2024/01/15 08:16:29;;;;;;;7.97;6.77;;;;;;;0.29;100.00;100144.41;5050139;28;20092;-65
2024/01/15 08:18:55;;;;;;;5.73;5.30;;;;;;;0.27;100.00;100152.31;5050408;28;20036;-64
2024/01/15 08:21:20;;;;;;;7.57;4.97;;;;;;;0.32;100.00;100153.00;5052303;28;20112;-64
2024/01/15 08:23:45;;;;;;;5.73;5.17;;;;;;;0.37;100.00;100147.66;5052555;28;20120;-64
2024/01/15 08:26:11;;;;;;;5.70;5.30;;;;;;;0.23;100.00;100135.00;5051651;28;20041;-64
2024/01/15 08:28:36;;;;;;;5.13;4.73;;;;;;;0.36;100.00;100144.19;5052372;28;20444;-64
2024/01/15 08:31:02;;;;;;;5.00;4.60;;;;;;;0.37;100.00;100145.03;5051967;28;20035;-64
2024/01/15 08:33:28;;;;;;;4.80;4.50;;;;;;;0.34;100.00;100135.50;5033036;28;20097;-64
2024/01/15 08:35:54;;;;;;;4.70;4.40;;;;;;;0.36;100.00;100153.78;5052319;28;20052;-64
2024/01/15 08:38:19;;;;;;;4.70;4.40;;;;;;;0.33;100.00;100146.03;5053514;28;20412;-64
2024/01/15 08:40:47;;;;;;;5.10;4.60;;;;;;;0.36;100.00;100148.56;5052465;28;20025;-64
2024/01/15 08:43:12;;;;;;;4.67;4.37;;;;;;;0.37;100.00;100158.09;5053361;28;20060;-64
2024/01/15 08:45:38;;;;;;;4.37;4.17;;;;;;;0.36;100.00;100161.63;5035203;28;20128;-64
2024/01/15 08:48:04;;;;;;;5.00;3.83;;;;;;;0.32;100.00;100155.63;5052649;28;20033;-64
2024/01/15 08:50:29;;;;;;;4.80;3.80;;;;;;;0.29;100.00;100144.41;5053933;28;20036;-64
2024/01/15 08:52:55;;;;;;;4.03;3.60;;;;;;;0.32;100.00;100157.38;5052913;28;20017;-64
2024/01/15 08:55:22;;;;;;;4.50;4.20;;;;;;;0.26;100.00;100144.50;5053091;28;20430;-64
2024/01/15 08:57:48;;;;;;;4.13;3.73;;;;;;;0.31;100.00;100145.22;5052757;28;20025;-64
2024/01/15 09:00:14;;;;;;;3.80;3.50;;;;;;;0.26;100.00;100139.28;5053763;28;20029;-64
2024/01/15 09:02:39;;;;;;;6.00;3.97;;;;;;;0.31;100.00;100146.06;5052384;28;20028;-64
2024/01/15 09:05:05;;;;;;;6.00;3.73;;;;;;;0.37;100.00;100160.72;5053704;28;20036;-64
2024/01/15 09:07:30;;;;;;;4.77;3.73;;;;;;;0.37;100.00;100158.97;5053762;28;20032;-64
2024/01/15 09:09:55;;;;;;;7.13;4.10;;;;;;;0.39;100.00;100148.47;5052457;28;20476;-64
2024/01/15 09:12:22;;;;;;;3.47;3.33;;;;;;;0.38;100.00;100159.81;5051902;28;20025;-64
2024/01/15 09:14:47;;;;;;;4.57;3.40;;;;;;;0.41;100.00;100154.47;5053378;28;20103;-64
2024/01/15 09:17:13;;;;;;;3.63;3.33;;;;;;;0.39;100.00;100166.78;5053388;28;20117;-64
2024/01/15 09:19:41;;;;;;;5.97;3.80;;;;;;;0.40;100.00;100173.69;5053341;28;20025;-64
2024/01/15 09:22:09;;;;;;;4.80;3.83;;;;;;;0.41;100.00;100167.56;5052150;28;20055;-64
2024/01/15 09:24:34;;;;;;;4.23;3.93;;;;;;;0.37;100.00;100163.34;5052934;28;20037;-64
2024/01/15 09:27:00;;;;;;;7.90;4.40;;;;;;;0.42;100.00;100164.06;5052919;28;20017;-64
2024/01/15 09:29:25;;;;;;;3.63;3.43;;;;;;;0.38;100.00;100158.06;5053223;28;20032;-64
2024/01/15 09:31:51;;;;;;;3.83;3.53;;;;;;;0.48;100.00;100158.63;5052052;28;20376;-64
2024/01/15 09:34:17;;;;;;;6.27;4.57;;;;;;;0.40;100.00;100137.94;5052187;28;20023;-64
2024/01/15 09:36:42;;;;;;;4.50;4.10;;;;;;;0.50;100.00;100151.59;5052968;28;20025;-64
2024/01/15 09:39:11;;;;;;;5.23;3.80;;;;;;;0.47;100.00;100151.66;5051678;28;20384;-64
2024/01/15 09:41:37;;;;;;;3.93;3.63;;;;;;;0.61;100.00;100146.81;5051216;28;20029;-64
2024/01/15 09:44:03;;;;;;;4.43;4.00;;;;;;;0.54;100.00;100147.94;5051510;28;20117;-64
2024/01/15 09:46:29;;;;;;;5.63;3.87;;;;;;;0.56;100.00;100146.16;5052979;28;20052;-65
2024/01/15 09:48:55;;;;;;;6.50;3.80;;;;;;;0.48;100.00;100156.00;5053161;28;20028;-64
2024/01/15 09:51:21;;;;;;;4.67;3.53;;;;;;;0.62;100.00;100174.72;5051522;28;20025;-64
2024/01/15 09:53:47;;;;;;;4.33;3.93;;;;;;;0.68;100.00;100182.38;5052654;28;20104;-64
2024/01/15 09:56:14;;;;;;;7.30;3.47;;;;;;;0.57;100.00;100160.06;5052407;28;20017;-64
2024/01/15 09:58:41;;;;;;;6.33;3.40;;;;;;;0.69;100.00;100185.81;5052492;28;20025;-64
2024/01/15 10:01:07;;;;;;;6.60;3.40;;;;;;;0.63;100.00;100186.03;5052640;28;20071;-64
2024/01/15 10:03:33;;;;;;;4.30;3.97;;;;;;;0.64;100.00;100191.19;5051430;28;20025;-64
2024/01/15 10:06:00;;;;;;;4.27;3.93;;;;;;;0.61;100.00;100188.69;5052589;28;20538;-65
2024/01/15 10:08:25;;;;;;;4.17;3.80;;;;;;;0.62;100.00;100187.81;5051286;28;20063;-64
2024/01/15 10:10:51;;;;;;;5.57;4.17;;;;;;;0.73;100.00;100166.50;5052167;28;20048;-64
2024/01/15 10:13:19;;;;;;;3.90;3.60;;;;;;;1.04;100.00;100189.88;5051127;28;20044;-64
2024/01/15 10:15:47;;;;;;;4.27;3.97;;;;;;;1.12;100.00;100190.47;5052094;28;20045;-64
2024/01/15 10:18:12;;;;;;;4.47;4.07;;;;;;;1.28;100.00;100188.16;5051264;28;20032;-64
2024/01/15 10:20:39;;;;;;;5.93;4.17;;;;;;;1.30;100.00;100177.63;5052130;28;20468;-64
2024/01/15 10:23:05;;;;;;;9.37;4.33;;;;;;;1.18;100.00;100165.84;5052172;28;20103;-65
2024/01/15 10:25:30;;;;;;;9.70;4.30;;;;;;;1.33;100.00;100167.91;5051441;28;20479;-64
2024/01/15 10:28:03;;;;;;;4.23;3.80;;;;;;;1.54;100.00;100170.66;5052324;28;20039;-64
2024/01/15 10:30:32;;;;;;;7.37;4.10;;;;;;;1.49;100.00;100167.34;5051937;28;20095;-64
2024/01/15 10:33:02;;;;;;;4.53;4.13;;;;;;;1.61;100.00;100177.34;5038080;28;20052;-64
2024/01/15 10:35:33;;;;;;;4.53;4.20;;;;;;;1.61;100.00;100176.50;5031947;28;20025;-64
2024/01/15 10:38:00;;;;;;;4.23;3.83;;;;;;;1.82;100.00;100180.94;5030850;28;20094;-64
2024/01/15 10:40:25;;;;;;;6.50;4.07;;;;;;;2.00;100.00;100179.38;5034020;28;20040;-64
2024/01/15 10:42:51;;;;;;;6.33;4.07;;;;;;;1.83;100.00;100160.84;5049682;28;20025;-64
2024/01/15 10:45:17;;;;;;;4.13;3.70;;;;;;;1.90;100.00;100175.41;5051957;28;20024;-64
2024/01/15 10:47:43;;;;;;;7.07;4.37;;;;;;;1.93;100.00;100175.28;5050293;28;20423;-63
2024/01/15 10:50:09;;;;;;;7.80;3.63;;;;;;;2.05;100.00;100167.78;5051217;28;20059;-64
2024/01/15 10:52:45;;;;;;;4.20;3.90;;;;;;;2.34;100.00;100170.19;5041987;28;20024;-64
2024/01/15 10:55:11;;;;;;;4.80;3.70;;;;;;;2.58;100.00;100168.34;5043088;28;20024;-64
2024/01/15 10:57:37;;;;;;;3.83;3.53;;;;;;;2.66;100.00;100169.75;5051187;28;20060;-64
2024/01/15 11:00:05;;;;;;;3.80;3.30;;;;;;;2.50;100.00;100180.03;5047837;28;20144;-64
2024/01/15 11:02:33;;;;;;;4.23;3.87;;;;;;;2.40;100.00;100165.56;5072061;28;20021;-64
2024/01/15 11:04:59;;;;;;;3.05;2.85;;;;;;;2.26;100.00;100160.00;5048383;28;20108;-64
2024/01/15 11:07:25;;;;;;;4.17;3.83;;;;;;;2.11;100.00;100161.47;5044581;28;20029;-64
2024/01/15 11:09:51;;;;;;;3.70;3.40;;;;;;;2.01;100.00;100181.09;5054692;28;20039;-64
2024/01/15 11:12:21;;;;;;;3.80;3.50;;;;;;;2.27;100.00;100173.06;5044708;28;20028;-64
2024/01/15 11:14:47;;;;;;;;;;;;;;;2.99;100.00;100178.88;5037525;28;20036;-64
2024/01/15 11:17:14;;;;;;;3.13;2.92;;;;;;;3.64;100.00;100183.03;5042611;28;19952;-64
2024/01/15 11:19:44;;;;;;;3.42;2.80;;;;;;;4.27;100.00;100180.97;5040255;28;20468;-64